createdAt,value
2023-04-09T00:01:29.924Z,7.63
2023-04-09T00:03:56.449Z,7.82
2023-04-09T00:06:22.995Z,9.18
2023-04-09T00:08:49.531Z,8.35
2023-04-09T00:11:16.103Z,8.60
2023-04-09T00:13:42.560Z,10.82
2023-04-09T00:16:09.214Z,9.13
2023-04-09T00:18:36.160Z,9.65
2023-04-09T00:21:02.588Z,7.22
2023-04-09T00:23:29.228Z,9.32
2023-04-09T00:25:55.823Z,6.70
2023-04-09T00:28:22.363Z,8.73
2023-04-09T00:30:48.955Z,9.13
2023-04-09T00:33:15.597Z,7.68
2023-04-09T00:35:42.243Z,9.38
2023-04-09T00:38:08.869Z,7.03
2023-04-09T00:40:35.509Z,4.90
2023-04-09T00:43:02.550Z,7.68
2023-04-09T00:45:29.277Z,10.40
2023-04-09T00:47:56.210Z,7.80
2023-04-09T00:50:22.982Z,8.57
2023-04-09T00:52:49.671Z,8.02
2023-04-09T00:55:18.315Z,8.70
2023-04-09T00:57:45.016Z,6.10
2023-04-09T01:00:13.135Z,8.23
2023-04-09T01:02:41.024Z,8.48
2023-04-09T01:05:08.329Z,6.93
2023-04-09T01:08:02.046Z,8.77
2023-04-09T01:15:33.936Z,6.80
2023-04-09T01:18:07.474Z,9.00
2023-04-09T01:20:43.591Z,5.53
2023-04-09T01:23:10.124Z,6.68
2023-04-09T01:26:04.303Z,5.05
2023-04-09T01:28:39.412Z,4.47
2023-04-09T01:31:13.757Z,10.35
2023-04-09T01:33:42.196Z,5.72
2023-04-09T01:36:09.925Z,9.52
2023-04-09T01:38:39.845Z,6.88
2023-04-09T01:41:07.815Z,7.78
2023-04-09T01:43:35.092Z,7.20
2023-04-09T01:46:03.741Z,7.13
2023-04-09T01:48:31.600Z,6.63
2023-04-09T01:50:59.060Z,5.97
2023-04-09T01:53:28.460Z,9.23
2023-04-09T01:55:58.328Z,6.18
2023-04-09T01:58:26.327Z,5.68
2023-04-09T02:00:59.013Z,5.07
2023-04-09T02:03:31.465Z,7.68
2023-04-09T02:06:12.068Z,5.35
2023-04-09T02:08:39.428Z,7.82
2023-04-09T02:11:10.787Z,8.95
2023-04-09T02:13:40.393Z,10.13
2023-04-09T02:16:08.051Z,4.90
2023-04-09T02:18:34.663Z,4.97
2023-04-09T02:21:01.345Z,8.13
2023-04-09T02:23:28.076Z,7.63
2023-04-09T02:25:54.804Z,5.85
2023-04-09T02:28:21.505Z,7.07
2023-04-09T02:30:48.111Z,7.70
2023-04-09T02:33:14.698Z,8.27
2023-04-09T02:35:42.413Z,7.43
2023-04-09T02:38:13.998Z,5.47
2023-04-09T02:40:41.410Z,9.73
2023-04-09T02:43:08.974Z,6.22
2023-04-09T02:45:36.094Z,7.50
2023-04-09T02:48:02.708Z,6.30
2023-04-09T02:50:29.529Z,7.07
2023-04-09T02:52:56.188Z,10.10
2023-04-09T02:55:22.859Z,8.00
2023-04-09T02:57:49.432Z,8.13
2023-04-09T03:00:16.288Z,6.70
2023-04-09T03:02:43.281Z,6.50
2023-04-09T03:05:10.382Z,8.00
2023-04-09T03:07:36.927Z,6.13
2023-04-09T03:10:03.594Z,5.80
2023-04-09T03:12:30.155Z,8.25
2023-04-09T03:14:56.680Z,11.23
2023-04-09T03:17:25.830Z,16.92
2023-04-09T03:19:52.599Z,10.48
2023-04-09T03:22:19.181Z,12.45
2023-04-09T03:24:45.812Z,8.00
2023-04-09T03:27:12.463Z,14.48
2023-04-09T03:29:39.044Z,9.88
2023-04-09T03:32:05.865Z,7.10
2023-04-09T03:34:32.429Z,9.52
2023-04-09T03:36:59.124Z,8.32
2023-04-09T03:39:26.105Z,9.90
2023-04-09T03:41:53.226Z,7.72
2023-04-09T03:44:19.775Z,7.68
2023-04-09T03:46:46.385Z,7.60
2023-04-09T03:49:12.915Z,6.30
2023-04-09T03:51:39.498Z,6.97
2023-04-09T03:54:06.102Z,6.38
2023-04-09T03:56:32.705Z,6.32
2023-04-09T03:58:59.328Z,9.48
2023-04-09T04:01:26.007Z,8.30
2023-04-09T04:03:52.632Z,7.95
2023-04-09T04:06:19.400Z,5.72
2023-04-09T04:08:45.967Z,5.65
2023-04-09T04:11:12.622Z,8.10
2023-04-09T04:13:39.387Z,6.88
2023-04-09T04:16:10.226Z,8.07
2023-04-09T04:18:37.336Z,7.43
2023-04-09T04:21:04.147Z,7.03
2023-04-09T04:23:30.802Z,6.15
2023-04-09T04:25:58.172Z,9.38
2023-04-09T04:28:24.813Z,6.57
2023-04-09T04:30:51.380Z,4.93
2023-04-09T04:33:18.542Z,8.32
2023-04-09T04:35:45.397Z,5.43
2023-04-09T04:38:12.050Z,5.95
2023-04-09T04:40:38.625Z,4.45
2023-04-09T04:43:05.390Z,9.18
2023-04-09T04:45:31.966Z,6.75
2023-04-09T04:47:58.484Z,10.82
2023-04-09T04:50:25.134Z,11.15
2023-04-09T04:52:51.742Z,8.10
2023-04-09T04:55:18.328Z,6.28
2023-04-09T04:57:44.885Z,7.18
2023-04-09T05:00:12.413Z,8.00
2023-04-09T05:02:39.166Z,7.55
2023-04-09T05:05:06.687Z,7.10
2023-04-09T05:07:33.924Z,7.00
2023-04-09T05:10:00.571Z,7.32
2023-04-09T05:12:27.176Z,6.68
2023-04-09T05:14:53.711Z,6.40
2023-04-09T05:17:20.355Z,10.85
2023-04-09T05:19:52.496Z,5.57
2023-04-09T05:22:19.386Z,7.85
2023-04-09T05:24:46.147Z,7.43
2023-04-09T05:27:12.708Z,8.15
2023-04-09T05:29:39.258Z,9.25
2023-04-09T05:32:06.974Z,7.90
2023-04-09T05:34:33.509Z,7.22
2023-04-09T05:37:00.036Z,9.68
2023-04-09T05:39:26.626Z,6.75
2023-04-09T05:41:53.218Z,8.95
2023-04-09T05:44:19.785Z,9.25
2023-04-09T05:46:46.325Z,8.05
2023-04-09T05:49:12.865Z,9.32
2023-04-09T05:51:39.420Z,7.40
2023-04-09T05:54:06.039Z,7.85
2023-04-09T05:56:32.604Z,9.88
2023-04-09T05:58:59.098Z,7.28
2023-04-09T06:01:25.653Z,7.72
2023-04-09T06:03:53.910Z,11.75
2023-04-09T06:06:21.870Z,5.97
2023-04-09T06:08:48.280Z,12.05
2023-04-09T06:11:14.740Z,8.65
2023-04-09T06:13:41.544Z,7.85
2023-04-09T06:16:09.009Z,6.57
2023-04-09T06:18:36.840Z,12.52
2023-04-09T06:21:03.960Z,7.90
2023-04-09T06:23:31.083Z,8.45
2023-04-09T06:25:57.794Z,9.88
2023-04-09T06:28:24.501Z,3.78
2023-04-09T06:30:51.238Z,5.75
2023-04-09T06:33:17.904Z,8.10
2023-04-09T06:35:44.608Z,5.70
2023-04-09T06:38:11.349Z,6.43
2023-04-09T06:40:39.141Z,5.82
2023-04-09T06:43:06.193Z,5.88
2023-04-09T06:45:33.813Z,7.55
2023-04-09T06:48:01.044Z,7.47
2023-04-09T06:50:27.817Z,6.00
2023-04-09T06:52:55.344Z,7.65
2023-04-09T06:55:21.989Z,6.32
2023-04-09T06:57:48.632Z,7.22
2023-04-09T07:00:15.511Z,6.18
2023-04-09T07:02:42.230Z,7.15
2023-04-09T07:05:09.302Z,6.18
2023-04-09T07:07:35.836Z,7.07
2023-04-09T07:10:02.398Z,7.13
2023-04-09T07:12:32.740Z,7.57
2023-04-09T07:15:03.730Z,6.15
2023-04-09T07:17:31.242Z,6.50
2023-04-09T07:19:57.842Z,5.30
2023-04-09T07:22:26.780Z,4.43
2023-04-09T07:24:56.526Z,5.50
2023-04-09T07:27:24.809Z,6.03
2023-04-09T07:29:51.264Z,7.90
2023-04-09T07:32:17.771Z,7.15
2023-04-09T07:34:44.492Z,6.72
2023-04-09T07:37:11.806Z,7.40
2023-04-09T07:39:38.509Z,6.72
2023-04-09T07:42:05.825Z,8.63
2023-04-09T07:44:36.515Z,7.03
2023-04-09T07:47:04.660Z,7.90
2023-04-09T07:49:31.348Z,5.65
2023-04-09T07:51:59.741Z,7.03
2023-04-09T07:54:26.389Z,6.55
2023-04-09T07:56:52.801Z,8.10
2023-04-09T07:59:19.276Z,7.38
2023-04-09T08:01:45.981Z,6.03
2023-04-09T08:04:13.723Z,5.78
2023-04-09T08:06:40.829Z,5.90
2023-04-09T08:09:07.793Z,7.07
2023-04-09T08:11:34.245Z,6.10
2023-04-09T08:14:03.593Z,6.30
2023-04-09T08:16:30.484Z,6.65
2023-04-09T08:18:57.444Z,6.47
2023-04-09T08:21:23.977Z,5.85
2023-04-09T08:23:51.099Z,10.02
2023-04-09T08:26:17.835Z,9.05
2023-04-09T08:28:44.784Z,8.98
2023-04-09T08:31:11.264Z,8.52
2023-04-09T08:33:37.714Z,5.80
2023-04-09T08:36:08.586Z,5.78
2023-04-09T08:38:35.073Z,5.68
2023-04-09T08:41:01.506Z,4.50
2023-04-09T08:43:42.001Z,6.35
2023-04-09T08:46:18.662Z,6.45
2023-04-09T08:48:46.775Z,4.75
2023-04-09T08:51:17.461Z,6.88
2023-04-09T08:53:47.537Z,6.30
2023-04-09T08:56:16.996Z,5.45
2023-04-09T08:58:44.786Z,6.93
2023-04-09T09:01:25.478Z,5.82
2023-04-09T09:03:59.455Z,7.35
2023-04-09T09:06:32.725Z,7.32
2023-04-09T09:09:09.561Z,6.53
2023-04-09T09:11:43.690Z,7.50
2023-04-09T09:14:15.971Z,6.68
2023-04-09T09:16:44.930Z,5.47
2023-04-09T09:19:26.648Z,7.05
2023-04-09T09:22:01.986Z,6.28
2023-04-09T09:24:28.908Z,7.20
2023-04-09T09:26:55.741Z,5.25
2023-04-09T09:29:22.235Z,4.47
2023-04-09T09:31:52.998Z,5.32
2023-04-09T09:34:20.945Z,4.63
2023-04-09T09:36:47.988Z,4.22
2023-04-09T09:39:17.317Z,5.65
2023-04-09T09:41:45.781Z,5.07
2023-04-09T09:44:29.990Z,5.75
2023-04-09T09:46:57.566Z,4.95
2023-04-09T09:49:23.978Z,6.18
2023-04-09T09:51:53.115Z,4.13
2023-04-09T09:54:23.781Z,4.95
2023-04-09T09:56:52.689Z,9.43
2023-04-09T09:59:27.053Z,8.45
2023-04-09T10:02:00.239Z,13.25
2023-04-09T10:04:29.773Z,4.05
2023-04-09T10:06:56.965Z,6.88
2023-04-09T10:09:23.897Z,5.55
2023-04-09T10:11:50.429Z,4.30
2023-04-09T10:14:18.692Z,4.45
2023-04-09T10:16:46.400Z,6.43
2023-04-09T10:19:14.988Z,5.40
2023-04-09T10:21:47.558Z,5.38
2023-04-09T10:24:15.986Z,6.53
2023-04-09T10:26:45.028Z,4.63
2023-04-09T10:29:15.946Z,5.13
2023-04-09T10:31:54.169Z,4.65
2023-04-09T10:34:27.195Z,6.22
2023-04-09T10:36:58.367Z,4.78
2023-04-09T10:39:29.894Z,6.35
2023-04-09T10:41:57.277Z,3.53
2023-04-09T10:44:28.248Z,3.72
2023-04-09T10:46:55.482Z,4.47
2023-04-09T10:49:26.957Z,3.47
2023-04-09T10:52:13.744Z,3.17
2023-04-09T10:54:43.843Z,3.28
2023-04-09T10:57:13.548Z,2.67
2023-04-09T10:59:45.384Z,2.75
2023-04-09T11:02:45.121Z,2.92
2023-04-09T11:05:17.489Z,3.17
2023-04-09T11:08:09.640Z,3.40
2023-04-09T11:10:37.630Z,2.65
2023-04-09T11:13:04.819Z,1.90
2023-04-09T11:15:34.364Z,2.72
2023-04-09T11:18:01.792Z,5.32
2023-04-09T11:20:28.584Z,3.15
2023-04-09T11:22:56.077Z,2.65
2023-04-09T11:25:24.825Z,2.75
2023-04-09T11:27:51.275Z,3.67
2023-04-09T11:30:17.803Z,6.07
2023-04-09T11:32:44.740Z,2.72
2023-04-09T11:35:22.083Z,2.92
2023-04-09T11:37:50.117Z,3.30
2023-04-09T11:40:25.584Z,3.17
2023-04-09T11:42:54.034Z,4.90
2023-04-09T11:45:23.357Z,2.70
2023-04-09T11:47:50.387Z,2.38
2023-04-09T11:50:17.771Z,7.07
2023-04-09T11:52:46.034Z,3.67
2023-04-09T11:55:22.175Z,3.35
2023-04-09T11:57:51.102Z,2.95
2023-04-09T12:00:18.076Z,2.97
2023-04-09T12:02:46.799Z,2.33
2023-04-09T12:05:22.395Z,2.80
2023-04-09T12:07:56.294Z,3.33
2023-04-09T12:10:27.975Z,5.07
2023-04-09T12:12:54.636Z,5.88
2023-04-09T12:15:25.369Z,2.33
2023-04-09T12:17:54.433Z,3.63
2023-04-09T12:20:36.599Z,2.83
2023-04-09T12:23:04.759Z,1.63
2023-04-09T12:25:36.526Z,4.32
2023-04-09T12:28:04.478Z,2.40
2023-04-09T12:30:31.464Z,2.25
2023-04-09T12:32:59.106Z,4.25
2023-04-09T12:35:25.843Z,3.15
2023-04-09T12:37:53.194Z,2.78
2023-04-09T12:40:20.363Z,2.75
2023-04-09T12:42:47.034Z,3.45
2023-04-09T12:45:15.554Z,2.28
2023-04-09T12:47:42.491Z,1.95
2023-04-09T12:50:10.252Z,2.38
2023-04-09T12:52:36.987Z,1.77
2023-04-09T12:55:04.315Z,3.05
2023-04-09T12:57:30.859Z,1.83
2023-04-09T12:59:57.425Z,3.22
2023-04-09T13:02:24.436Z,4.63
2023-04-09T13:04:52.732Z,2.97
2023-04-09T13:07:20.300Z,2.17
2023-04-09T13:09:48.560Z,2.78
2023-04-09T13:12:16.220Z,4.30
2023-04-09T13:14:46.585Z,4.53
2023-04-09T13:17:13.432Z,2.05
2023-04-09T13:19:42.080Z,1.92
2023-04-09T13:22:09.404Z,3.47
2023-04-09T13:24:36.552Z,1.50
2023-04-09T13:27:04.736Z,2.50
2023-04-09T13:29:31.887Z,2.08
2023-04-09T13:31:58.702Z,2.72
2023-04-09T13:34:25.288Z,1.73
2023-04-09T13:36:51.810Z,3.13
2023-04-09T13:39:18.235Z,2.92
2023-04-09T13:41:44.787Z,1.98
2023-04-09T13:44:11.424Z,1.10
2023-04-09T13:46:37.894Z,1.63
2023-04-09T13:49:04.382Z,1.85
2023-04-09T13:51:31.572Z,2.13
2023-04-09T13:53:58.012Z,3.28
2023-04-09T13:56:25.200Z,2.17
2023-04-09T13:58:51.894Z,2.85
2023-04-09T14:01:18.716Z,1.50
2023-04-09T14:03:45.489Z,1.70
2023-04-09T14:06:13.420Z,1.48
2023-04-09T14:08:39.859Z,3.50
2023-04-09T14:11:06.523Z,3.42
2023-04-09T14:13:32.920Z,2.20
2023-04-09T14:16:00.519Z,3.50
2023-04-09T14:18:27.236Z,1.88
2023-04-09T14:20:53.661Z,4.18
2023-04-09T14:23:20.182Z,1.80
2023-04-09T14:25:46.524Z,2.80
2023-04-09T14:28:12.914Z,1.40
2023-04-09T14:30:39.338Z,2.35
2023-04-09T14:33:05.793Z,1.60
2023-04-09T14:35:32.308Z,3.85
2023-04-09T14:37:58.872Z,2.20
2023-04-09T14:40:25.368Z,2.00
2023-04-09T14:42:51.849Z,2.47
2023-04-09T14:45:18.294Z,2.38
2023-04-09T14:47:44.803Z,3.33
2023-04-09T14:50:12.848Z,2.00
2023-04-09T14:52:39.409Z,1.95
2023-04-09T14:55:11.958Z,2.70
2023-04-09T14:57:39.695Z,3.33
2023-04-09T15:00:08.828Z,2.53
2023-04-09T15:02:35.607Z,1.58
2023-04-09T15:05:03.409Z,4.22
2023-04-09T15:07:30.035Z,1.40
2023-04-09T15:09:59.421Z,1.83
2023-04-09T15:12:30.546Z,2.13
2023-04-09T15:15:07.091Z,3.20
2023-04-09T15:17:33.914Z,1.90
2023-04-09T15:20:00.499Z,5.13
2023-04-09T15:22:26.968Z,1.48
2023-04-09T15:24:53.655Z,2.45
2023-04-09T15:27:20.426Z,2.17
2023-04-09T15:29:47.312Z,3.47
2023-04-09T15:32:13.782Z,3.72
2023-04-09T15:34:40.278Z,1.20
2023-04-09T15:37:06.763Z,2.42
2023-04-09T15:39:33.257Z,2.75
2023-04-09T15:41:59.805Z,2.15
2023-04-09T15:44:26.224Z,2.10
2023-04-09T15:46:52.803Z,2.40
2023-04-09T15:49:19.838Z,1.50
2023-04-09T15:51:46.409Z,2.97
2023-04-09T15:54:12.906Z,1.38
2023-04-09T15:56:40.202Z,1.23
2023-04-09T15:59:08.319Z,2.08
2023-04-09T16:01:36.451Z,3.08
2023-04-09T16:04:04.907Z,3.20
2023-04-09T16:06:31.619Z,2.88
2023-04-09T16:08:58.052Z,1.85
2023-04-09T16:11:24.527Z,2.47
2023-04-09T16:13:51.049Z,2.08
2023-04-09T16:16:17.588Z,2.47
2023-04-09T16:18:44.076Z,1.83
2023-04-09T16:21:10.568Z,2.45
2023-04-09T16:23:37.153Z,2.22
2023-04-09T16:26:03.866Z,4.80
2023-04-09T16:28:30.350Z,2.72
2023-04-09T16:30:56.962Z,3.03
2023-04-09T16:33:23.372Z,3.20
2023-04-09T16:35:49.874Z,2.22
2023-04-09T16:38:16.287Z,3.45
2023-04-09T16:40:43.693Z,2.28
2023-04-09T16:43:10.297Z,2.97
2023-04-09T16:45:36.772Z,2.95
2023-04-09T16:48:03.574Z,2.17
2023-04-09T16:50:30.006Z,3.38
2023-04-09T16:52:56.590Z,2.95
2023-04-09T16:55:23.070Z,2.45
2023-04-09T16:57:49.478Z,9.88
2023-04-09T17:00:17.713Z,27.80
2023-04-09T17:02:45.911Z,65.07
2023-04-09T17:05:12.556Z,147.43
2023-04-09T17:07:39.079Z,129.25
2023-04-09T17:10:06.618Z,31.98
2023-04-09T17:12:33.338Z,51.13
2023-04-09T17:15:00.795Z,26.52
2023-04-09T17:17:27.461Z,11.57
2023-04-09T17:19:54.035Z,3.45
2023-04-09T17:22:20.576Z,3.58
2023-04-09T17:24:47.223Z,3.50
2023-04-09T17:27:13.722Z,2.13
2023-04-09T17:29:40.961Z,4.60
2023-04-09T17:32:07.479Z,2.35
2023-04-09T17:34:33.879Z,2.05
2023-04-09T17:37:00.371Z,3.55
2023-04-09T17:39:29.277Z,2.65
2023-04-09T17:41:58.058Z,5.03
2023-04-09T17:44:28.024Z,7.25
2023-04-09T17:46:54.554Z,20.63
2023-04-09T17:49:22.383Z,19.85
2023-04-09T17:51:48.940Z,16.67
2023-04-09T17:54:15.373Z,10.95
2023-04-09T17:56:41.891Z,9.30
2023-04-09T17:59:08.300Z,10.13
2023-04-09T18:01:34.783Z,12.82
2023-04-09T18:04:01.847Z,9.25
2023-04-09T18:06:28.968Z,5.50
2023-04-09T18:08:55.410Z,4.57
2023-04-09T18:11:23.560Z,3.60
2023-04-09T18:13:51.555Z,6.43
2023-04-09T18:16:20.775Z,8.88
2023-04-09T18:18:47.488Z,9.82
2023-04-09T18:21:15.182Z,8.63
2023-04-09T18:23:41.656Z,5.70
2023-04-09T18:26:08.252Z,4.78
2023-04-09T18:28:35.379Z,8.15
2023-04-09T18:31:02.014Z,7.30
2023-04-09T18:33:28.463Z,5.75
2023-04-09T18:35:54.938Z,3.22
2023-04-09T18:38:21.580Z,3.40
2023-04-09T18:40:48.042Z,2.65
2023-04-09T18:43:14.466Z,3.75
2023-04-09T18:45:40.915Z,3.85
2023-04-09T18:48:08.691Z,3.63
2023-04-09T18:50:35.428Z,4.10
2023-04-09T18:53:03.527Z,4.85
2023-04-09T18:55:30.418Z,5.70
2023-04-09T18:57:57.385Z,3.78
2023-04-09T19:00:27.425Z,3.33
2023-04-09T19:02:54.023Z,3.63
2023-04-09T19:05:20.747Z,3.80
2023-04-09T19:07:47.118Z,3.08
2023-04-09T19:10:13.579Z,2.45
2023-04-09T19:12:47.284Z,2.92
2023-04-09T19:15:13.871Z,4.60
2023-04-09T19:17:40.576Z,4.00
2023-04-09T19:20:07.659Z,7.22
2023-04-09T19:22:34.144Z,5.00
2023-04-09T19:25:00.605Z,5.82
2023-04-09T19:27:27.041Z,6.68
2023-04-09T19:29:53.516Z,4.65
2023-04-09T19:32:19.943Z,4.03
2023-04-09T19:34:46.357Z,3.50
2023-04-09T19:37:15.028Z,4.82
2023-04-09T19:39:41.538Z,6.20
2023-04-09T19:42:08.296Z,7.32
2023-04-09T19:44:34.831Z,4.07
2023-04-09T19:47:01.309Z,4.07
2023-04-09T19:49:28.607Z,5.75
2023-04-09T19:51:55.107Z,8.35
2023-04-09T19:54:21.820Z,4.38
2023-04-09T19:56:48.264Z,3.20
2023-04-09T19:59:14.901Z,3.78
2023-04-09T20:01:41.342Z,5.15
2023-04-09T20:04:09.233Z,4.75
2023-04-09T20:06:35.766Z,4.22
2023-04-09T20:09:02.220Z,5.18
2023-04-09T20:11:28.630Z,8.18
2023-04-09T20:13:56.715Z,5.20
2023-04-09T20:16:23.179Z,5.30
2023-04-09T20:18:49.601Z,5.28
2023-04-09T20:21:16.089Z,6.03
2023-04-09T20:23:45.044Z,7.10
2023-04-09T20:26:13.316Z,4.63
2023-04-09T20:28:40.765Z,4.43
2023-04-09T20:31:07.829Z,5.18
2023-04-09T20:33:34.476Z,10.20
2023-04-09T20:36:01.249Z,4.72
2023-04-09T20:38:27.791Z,6.10
2023-04-09T20:40:54.269Z,2.58
2023-04-09T20:43:21.219Z,4.72
2023-04-09T20:45:47.740Z,8.63
2023-04-09T20:48:14.845Z,5.13
2023-04-09T20:50:41.307Z,5.40
2023-04-09T20:53:07.982Z,6.65
2023-04-09T20:55:35.589Z,7.55
2023-04-09T20:58:02.863Z,8.15
2023-04-09T21:00:29.757Z,7.63
2023-04-09T21:02:56.516Z,8.18
2023-04-09T21:05:24.230Z,4.95
2023-04-09T21:07:52.176Z,5.00
2023-04-09T21:10:18.601Z,4.85
2023-04-09T21:12:45.197Z,4.45
2023-04-09T21:15:11.974Z,4.63
2023-04-09T21:17:38.522Z,5.07
2023-04-09T21:20:05.576Z,5.13
2023-04-09T21:22:32.071Z,5.55
2023-04-09T21:24:58.495Z,3.03
2023-04-09T21:27:24.980Z,4.93
2023-04-09T21:29:51.373Z,5.50
2023-04-09T21:32:17.890Z,4.13
2023-04-09T21:34:44.444Z,3.38
2023-04-09T21:37:11.073Z,5.10
2023-04-09T21:39:38.369Z,4.57
2023-04-09T21:42:05.840Z,5.75
2023-04-09T21:44:32.328Z,3.83
2023-04-09T21:46:58.753Z,4.80
2023-04-09T21:49:25.328Z,3.28
2023-04-09T21:51:52.746Z,3.45
2023-04-09T21:54:19.364Z,3.58
2023-04-09T21:56:46.295Z,3.33
2023-04-09T21:59:12.666Z,6.15
2023-04-09T22:01:39.271Z,4.25
2023-04-09T22:04:05.818Z,3.42
2023-04-09T22:06:32.438Z,3.45
2023-04-09T22:08:58.950Z,3.00
2023-04-09T22:11:29.358Z,2.85
2023-04-09T22:13:57.039Z,4.38
2023-04-09T22:16:24.374Z,2.65
2023-04-09T22:18:51.636Z,4.00
2023-04-09T22:21:18.260Z,5.90
2023-04-09T22:23:44.970Z,2.38
2023-04-09T22:26:11.499Z,2.90
2023-04-09T22:28:38.390Z,4.90
2023-04-09T22:31:05.777Z,2.83
2023-04-09T22:33:32.332Z,3.58
2023-04-09T22:35:59.362Z,1.88
2023-04-09T22:38:26.156Z,2.92
2023-04-09T22:40:52.710Z,3.35
2023-04-09T22:43:19.669Z,2.50
2023-04-09T22:45:55.878Z,2.30
2023-04-09T22:48:22.981Z,1.85
2023-04-09T22:50:50.338Z,2.70
2023-04-09T22:53:20.714Z,2.50
2023-04-09T22:55:51.223Z,3.08
2023-04-09T22:58:18.433Z,2.58
2023-04-09T23:00:45.370Z,3.80
2023-04-09T23:03:11.923Z,3.05
2023-04-09T23:05:38.979Z,3.83
2023-04-09T23:08:06.353Z,2.00
2023-04-09T23:10:34.144Z,2.75
2023-04-09T23:13:00.831Z,3.03
2023-04-09T23:15:28.044Z,1.83
2023-04-09T23:17:54.687Z,1.60
2023-04-09T23:20:21.169Z,1.75
2023-04-09T23:22:48.265Z,2.13
2023-04-09T23:25:18.217Z,2.45
2023-04-09T23:27:44.877Z,2.05
2023-04-09T23:30:16.435Z,3.00
2023-04-09T23:32:44.490Z,2.10
2023-04-09T23:35:11.495Z,2.08
2023-04-09T23:37:42.410Z,1.98
2023-04-09T23:40:10.519Z,3.05
2023-04-09T23:42:36.960Z,1.15
2023-04-09T23:45:05.382Z,1.75
2023-04-09T23:47:33.537Z,1.92
2023-04-09T23:50:09.648Z,2.28
2023-04-09T23:52:37.912Z,1.42
2023-04-09T23:55:05.735Z,1.70
2023-04-09T23:57:32.236Z,0.98
2023-04-09T23:59:58.779Z,2.75
